createdAt,value
2022-10-29T00:00:30.043Z,272.00
2022-10-29T00:01:30.075Z,271.00
2022-10-29T00:02:30.031Z,272.00
2022-10-29T00:03:30.004Z,269.00
2022-10-29T00:04:29.957Z,274.00
2022-10-29T00:05:29.956Z,267.00
2022-10-29T00:06:29.937Z,265.00
2022-10-29T00:07:29.960Z,263.00
2022-10-29T00:08:29.911Z,260.00
2022-10-29T00:09:29.892Z,259.00
2022-10-29T00:10:29.905Z,261.00
2022-10-29T00:11:29.891Z,260.00
2022-10-29T00:12:29.872Z,262.00
2022-10-29T00:13:29.850Z,263.00
2022-10-29T00:14:29.806Z,263.00
2022-10-29T00:15:29.788Z,265.00
2022-10-29T00:16:29.789Z,263.00
2022-10-29T00:17:29.810Z,268.00
2022-10-29T00:18:29.756Z,271.00
2022-10-29T00:19:29.751Z,274.00
2022-10-29T00:20:29.766Z,280.00
2022-10-29T00:21:29.746Z,285.00
2022-10-29T00:22:29.740Z,294.00
2022-10-29T00:23:29.717Z,298.00
2022-10-29T00:24:29.685Z,301.00
2022-10-29T00:25:29.669Z,301.00
2022-10-29T00:26:29.696Z,304.00
2022-10-29T00:27:29.621Z,306.00
2022-10-29T00:28:29.639Z,316.00
2022-10-29T00:29:29.614Z,315.00
2022-10-29T00:30:29.621Z,315.00
2022-10-29T00:31:29.650Z,325.00
2022-10-29T00:32:29.584Z,315.00
2022-10-29T00:33:29.558Z,312.00
2022-10-29T00:34:29.571Z,314.00
2022-10-29T00:35:29.543Z,308.00
2022-10-29T00:36:29.576Z,308.00
2022-10-29T00:37:29.525Z,308.00
2022-10-29T00:38:29.517Z,314.00
2022-10-29T00:39:29.507Z,316.00
2022-10-29T00:40:29.457Z,314.00
2022-10-29T00:41:29.471Z,312.00
2022-10-29T00:42:29.453Z,317.00
2022-10-29T00:43:29.423Z,319.00
2022-10-29T00:44:29.451Z,318.00
2022-10-29T00:45:29.456Z,320.00
2022-10-29T00:46:29.467Z,322.00
2022-10-29T00:47:29.392Z,316.00
2022-10-29T00:48:29.364Z,317.00
2022-10-29T00:49:29.326Z,320.00
2022-10-29T00:50:29.343Z,320.00
2022-10-29T00:51:29.332Z,316.00
2022-10-29T00:52:29.309Z,314.00
2022-10-29T00:53:29.318Z,318.00
2022-10-29T00:54:29.321Z,317.00
2022-10-29T00:55:29.276Z,315.00
2022-10-29T00:56:29.268Z,311.00
2022-10-29T00:57:29.301Z,310.00
2022-10-29T00:58:29.248Z,317.00
2022-10-29T00:59:29.213Z,316.00
2022-10-29T01:00:29.210Z,315.00
2022-10-29T01:01:29.363Z,316.00
2022-10-29T01:02:29.337Z,314.00
2022-10-29T01:03:29.172Z,314.00
2022-10-29T01:04:29.155Z,314.00
2022-10-29T01:05:29.138Z,313.00
2022-10-29T01:06:29.125Z,312.00
2022-10-29T01:07:29.138Z,311.00
2022-10-29T01:08:29.115Z,311.00
2022-10-29T01:09:29.086Z,311.00
2022-10-29T01:10:29.074Z,312.00
2022-10-29T01:11:29.033Z,310.00
2022-10-29T01:12:29.023Z,307.00
2022-10-29T01:13:29.072Z,300.00
2022-10-29T01:14:29.019Z,300.00
2022-10-29T01:15:29.015Z,296.00
2022-10-29T01:16:28.984Z,291.00
2022-10-29T01:17:28.972Z,290.00
2022-10-29T01:18:28.993Z,285.00
2022-10-29T01:19:29.102Z,279.00
2022-10-29T01:20:28.955Z,277.00
2022-10-29T01:21:28.953Z,278.00
2022-10-29T01:22:28.929Z,276.00
2022-10-29T01:23:28.882Z,276.00
2022-10-29T01:24:28.882Z,275.00
2022-10-29T01:25:28.894Z,276.00
2022-10-29T01:26:28.909Z,272.00
2022-10-29T01:27:28.829Z,265.00
2022-10-29T01:28:28.840Z,261.00
2022-10-29T01:29:28.818Z,261.00
2022-10-29T01:30:28.814Z,259.00
2022-10-29T01:31:28.800Z,258.00
2022-10-29T01:32:28.777Z,261.00
2022-10-29T01:33:28.773Z,262.00
2022-10-29T01:34:28.771Z,262.00
2022-10-29T01:35:28.751Z,263.00
2022-10-29T01:36:28.717Z,261.00
2022-10-29T01:37:28.721Z,263.00
2022-10-29T01:38:28.722Z,264.00
2022-10-29T01:39:28.686Z,264.00
2022-10-29T01:40:28.705Z,267.00
2022-10-29T01:41:28.680Z,265.00
2022-10-29T01:42:28.679Z,265.00
2022-10-29T01:43:28.620Z,274.00
2022-10-29T01:44:28.659Z,274.00
2022-10-29T01:45:29.304Z,272.00
2022-10-29T01:46:28.668Z,277.00
2022-10-29T01:47:28.591Z,279.00
2022-10-29T01:48:32.173Z,283.00
2022-10-29T01:49:28.552Z,286.00
2022-10-29T01:50:28.538Z,288.00
2022-10-29T01:51:28.527Z,286.00
2022-10-29T01:52:28.525Z,285.00
2022-10-29T01:53:28.531Z,287.00
2022-10-29T01:54:28.471Z,286.00
2022-10-29T01:55:28.519Z,289.00
2022-10-29T01:56:28.493Z,288.00
2022-10-29T01:57:28.480Z,291.00
2022-10-29T01:58:28.505Z,287.00
2022-10-29T01:59:36.208Z,288.00
2022-10-29T02:00:28.454Z,290.00
2022-10-29T02:01:28.533Z,292.00
2022-10-29T02:02:28.378Z,296.00
2022-10-29T02:03:28.357Z,302.00
2022-10-29T02:04:28.394Z,305.00
2022-10-29T02:05:28.350Z,309.00
2022-10-29T02:06:29.289Z,312.00
2022-10-29T02:07:28.314Z,314.00
2022-10-29T02:08:28.395Z,313.00
2022-10-29T02:09:28.301Z,313.00
2022-10-29T02:10:28.330Z,316.00
2022-10-29T02:11:28.352Z,318.00
2022-10-29T02:12:28.245Z,319.00
2022-10-29T02:13:28.242Z,317.00
2022-10-29T02:14:28.233Z,321.00
2022-10-29T02:15:28.223Z,315.00
2022-10-29T02:16:28.195Z,315.00
2022-10-29T02:17:28.202Z,313.00
2022-10-29T02:18:28.193Z,322.00
2022-10-29T02:19:28.208Z,330.00
2022-10-29T02:20:28.286Z,324.00
2022-10-29T02:21:28.204Z,326.00
2022-10-29T02:22:28.117Z,325.00
2022-10-29T02:23:28.115Z,327.00
2022-10-29T02:24:28.094Z,325.00
2022-10-29T02:25:28.145Z,324.00
2022-10-29T02:26:28.061Z,339.00
2022-10-29T02:27:28.041Z,340.00
2022-10-29T02:28:28.066Z,331.00
2022-10-29T02:29:28.021Z,350.00
2022-10-29T02:30:28.044Z,330.00
2022-10-29T02:31:28.059Z,339.00
2022-10-29T02:32:28.036Z,341.00
2022-10-29T02:33:28.222Z,326.00
2022-10-29T02:34:27.980Z,327.00
2022-10-29T02:35:27.938Z,341.00
2022-10-29T02:36:27.983Z,334.00
2022-10-29T02:37:27.970Z,345.00
2022-10-29T02:38:27.929Z,327.00
2022-10-29T02:39:27.884Z,304.00
2022-10-29T02:40:27.868Z,324.00
2022-10-29T02:41:27.887Z,326.00
2022-10-29T02:42:27.884Z,352.00
2022-10-29T02:43:27.833Z,322.00
2022-10-29T02:44:27.855Z,316.00
2022-10-29T02:45:27.820Z,301.00
2022-10-29T02:46:27.847Z,368.00
2022-10-29T02:47:27.812Z,348.00
2022-10-29T02:48:27.817Z,335.00
2022-10-29T02:49:27.751Z,341.00
2022-10-29T02:50:27.852Z,327.00
2022-10-29T02:51:27.765Z,364.00
2022-10-29T02:52:27.734Z,386.00
2022-10-29T02:53:27.714Z,373.00
2022-10-29T02:54:27.707Z,358.00
2022-10-29T02:55:27.724Z,358.00
2022-10-29T02:56:27.734Z,331.00
2022-10-29T02:57:27.646Z,328.00
2022-10-29T02:58:27.785Z,326.00
2022-10-29T02:59:27.653Z,323.00
2022-10-29T03:00:27.692Z,317.00
2022-10-29T03:01:27.751Z,312.00
2022-10-29T03:02:27.677Z,307.00
2022-10-29T03:03:27.607Z,300.00
2022-10-29T03:04:27.593Z,295.00
2022-10-29T03:05:27.580Z,292.00
2022-10-29T03:06:27.601Z,284.00
2022-10-29T03:07:27.503Z,281.00
2022-10-29T03:08:27.665Z,278.00
2022-10-29T03:09:27.544Z,270.00
2022-10-29T03:10:27.553Z,270.00
2022-10-29T03:11:27.530Z,272.00
2022-10-29T03:12:27.457Z,270.00
2022-10-29T03:13:27.591Z,268.00
2022-10-29T03:14:27.491Z,270.00
2022-10-29T03:15:27.454Z,271.00
2022-10-29T03:16:27.424Z,268.00
2022-10-29T03:17:27.392Z,268.00
2022-10-29T03:18:27.436Z,269.00
2022-10-29T03:19:27.380Z,273.00
2022-10-29T03:20:27.363Z,275.00
2022-10-29T03:21:27.375Z,277.00
2022-10-29T03:22:27.395Z,276.00
2022-10-29T03:23:27.333Z,271.00
2022-10-29T03:24:27.301Z,273.00
2022-10-29T03:25:27.291Z,273.00
2022-10-29T03:26:27.290Z,275.00
2022-10-29T03:27:27.324Z,279.00
2022-10-29T03:28:27.275Z,284.00
2022-10-29T03:29:27.217Z,288.00
2022-10-29T03:30:27.228Z,295.00
2022-10-29T03:31:27.213Z,299.00
2022-10-29T03:32:27.209Z,302.00
2022-10-29T03:33:27.151Z,304.00
2022-10-29T03:34:27.156Z,306.00
2022-10-29T03:35:27.239Z,306.00
2022-10-29T03:36:27.158Z,300.00
2022-10-29T03:37:27.146Z,300.00
2022-10-29T03:38:27.141Z,306.00
2022-10-29T03:39:27.103Z,317.00
2022-10-29T03:40:27.116Z,328.00
2022-10-29T03:41:27.053Z,326.00
2022-10-29T03:42:27.090Z,326.00
2022-10-29T03:43:27.026Z,338.00
2022-10-29T03:44:27.072Z,340.00
2022-10-29T03:45:27.001Z,335.00
2022-10-29T03:46:27.066Z,321.00
2022-10-29T03:47:27.026Z,330.00
2022-10-29T03:48:26.975Z,339.00
2022-10-29T03:49:26.960Z,327.00
2022-10-29T03:50:27.000Z,304.00
2022-10-29T03:51:26.945Z,300.00
2022-10-29T03:52:26.948Z,312.00
2022-10-29T03:53:26.944Z,330.00
2022-10-29T03:54:26.881Z,328.00
2022-10-29T03:55:26.870Z,327.00
2022-10-29T03:56:26.912Z,315.00
2022-10-29T03:57:26.880Z,317.00
2022-10-29T03:58:26.861Z,282.00
2022-10-29T03:59:26.838Z,322.00
2022-10-29T04:00:26.834Z,340.00
2022-10-29T04:01:26.896Z,313.00
2022-10-29T04:02:26.923Z,344.00
2022-10-29T04:03:26.772Z,321.00
2022-10-29T04:04:26.844Z,330.00
2022-10-29T04:05:26.795Z,384.00
2022-10-29T04:06:26.853Z,347.00
2022-10-29T04:07:26.743Z,328.00
2022-10-29T04:08:26.766Z,342.00
2022-10-29T04:09:26.729Z,304.00
2022-10-29T04:10:26.742Z,351.00
2022-10-29T04:11:26.655Z,345.00
2022-10-29T04:12:26.744Z,348.00
2022-10-29T04:13:26.728Z,351.00
2022-10-29T04:14:26.690Z,330.00
2022-10-29T04:15:26.718Z,350.00
2022-10-29T04:16:26.619Z,363.00
2022-10-29T04:17:26.698Z,350.00
2022-10-29T04:18:26.578Z,355.00
2022-10-29T04:19:26.631Z,329.00
2022-10-29T04:20:43.312Z,295.00
2022-10-29T04:28:43.580Z,352.00
2022-10-29T04:29:26.432Z,353.00
2022-10-29T04:30:26.450Z,350.00
2022-10-29T04:31:26.394Z,359.00
2022-10-29T04:32:26.425Z,335.00
2022-10-29T04:33:26.359Z,360.00
2022-10-29T04:34:26.365Z,356.00
2022-10-29T04:35:26.348Z,333.00
2022-10-29T04:36:26.361Z,337.00
2022-10-29T04:37:26.337Z,342.00
2022-10-29T04:38:26.328Z,349.00
2022-10-29T04:39:26.314Z,348.00
2022-10-29T04:40:26.298Z,324.00
2022-10-29T04:41:26.252Z,330.00
2022-10-29T04:42:26.256Z,339.00
2022-10-29T04:43:26.252Z,357.00
2022-10-29T04:44:26.237Z,332.00
2022-10-29T04:45:26.235Z,357.00
2022-10-29T04:46:26.209Z,364.00
2022-10-29T04:47:26.213Z,343.00
2022-10-29T04:48:26.173Z,340.00
2022-10-29T04:49:26.271Z,339.00
2022-10-29T04:50:26.140Z,344.00
2022-10-29T04:51:26.145Z,333.00
2022-10-29T04:52:26.138Z,380.00
2022-10-29T04:53:26.139Z,337.00
2022-10-29T04:54:26.157Z,324.00
2022-10-29T04:55:26.293Z,309.00
2022-10-29T04:56:26.111Z,340.00
2022-10-29T04:57:26.052Z,340.00
2022-10-29T04:58:26.055Z,317.00
2022-10-29T04:59:26.029Z,344.00
2022-10-29T05:00:26.002Z,323.00
2022-10-29T05:01:26.249Z,301.00
2022-10-29T05:02:25.960Z,338.00
2022-10-29T05:03:25.989Z,345.00
2022-10-29T05:04:26.027Z,353.00
2022-10-29T05:05:25.953Z,338.00
2022-10-29T05:06:25.919Z,346.00
2022-10-29T05:07:25.928Z,349.00
2022-10-29T05:08:25.908Z,346.00
2022-10-29T05:09:25.945Z,328.00
2022-10-29T05:10:25.860Z,349.00
2022-10-29T05:11:25.869Z,352.00
2022-10-29T05:12:25.862Z,313.00
2022-10-29T05:13:25.835Z,338.00
2022-10-29T05:14:25.811Z,340.00
2022-10-29T05:15:25.804Z,343.00
2022-10-29T05:16:25.820Z,337.00
2022-10-29T05:17:25.788Z,342.00
2022-10-29T05:18:25.788Z,345.00
2022-10-29T05:19:25.741Z,336.00
2022-10-29T05:20:25.754Z,357.00
2022-10-29T05:21:25.736Z,326.00
2022-10-29T05:22:25.713Z,326.00
2022-10-29T05:23:25.718Z,337.00
2022-10-29T05:24:25.806Z,344.00
2022-10-29T05:25:25.880Z,342.00
2022-10-29T05:26:27.553Z,344.00
2022-10-29T05:27:26.527Z,346.00
2022-10-29T05:28:25.678Z,316.00
2022-10-29T05:29:25.628Z,326.00
2022-10-29T05:30:25.604Z,329.00
2022-10-29T05:31:25.580Z,321.00
2022-10-29T05:32:46.598Z,341.00
2022-10-29T05:33:25.573Z,360.00
2022-10-29T05:34:25.561Z,350.00
2022-10-29T05:35:25.547Z,278.00
2022-10-29T05:36:25.564Z,337.00
2022-10-29T05:37:25.509Z,333.00
2022-10-29T05:38:25.503Z,333.00
2022-10-29T05:39:25.523Z,359.00
2022-10-29T05:40:26.214Z,360.00
2022-10-29T05:41:25.535Z,381.00
2022-10-29T05:42:25.852Z,383.00
2022-10-29T05:43:25.452Z,371.00
2022-10-29T05:44:25.635Z,358.00
2022-10-29T05:45:25.424Z,365.00
2022-10-29T05:46:25.521Z,348.00
2022-10-29T05:47:25.379Z,352.00
2022-10-29T05:48:25.491Z,353.00
2022-10-29T05:49:25.510Z,360.00
2022-10-29T05:50:25.387Z,352.00
2022-10-29T05:51:25.313Z,367.00
2022-10-29T05:52:25.323Z,324.00
2022-10-29T05:53:25.311Z,366.00
2022-10-29T05:54:25.329Z,349.00
2022-10-29T05:55:25.329Z,357.00
2022-10-29T05:56:25.295Z,359.00
2022-10-29T05:57:25.544Z,356.00
2022-10-29T05:58:26.338Z,356.00
2022-10-29T05:59:28.552Z,370.00
2022-10-29T06:00:25.211Z,354.00
2022-10-29T06:01:25.265Z,347.00
2022-10-29T06:02:25.382Z,358.00
2022-10-29T06:03:25.151Z,376.00
2022-10-29T06:04:25.152Z,371.00
2022-10-29T06:05:25.148Z,380.00
2022-10-29T06:06:25.164Z,365.00
2022-10-29T06:07:25.130Z,367.00
2022-10-29T06:08:25.143Z,368.00
2022-10-29T06:09:25.477Z,390.00
2022-10-29T06:10:25.493Z,382.00
2022-10-29T06:11:25.080Z,419.00
2022-10-29T06:12:25.093Z,390.00
2022-10-29T06:13:25.057Z,371.00
2022-10-29T06:14:25.041Z,362.00
2022-10-29T06:15:25.035Z,367.00
2022-10-29T06:16:25.004Z,379.00
2022-10-29T06:17:25.016Z,370.00
2022-10-29T06:18:25.025Z,369.00
2022-10-29T06:19:24.948Z,365.00
2022-10-29T06:20:24.934Z,346.00
2022-10-29T06:21:24.953Z,368.00
2022-10-29T06:22:24.933Z,362.00
2022-10-29T06:23:24.906Z,370.00
2022-10-29T06:24:24.905Z,354.00
2022-10-29T06:25:24.897Z,342.00
2022-10-29T06:26:24.871Z,342.00
2022-10-29T06:27:24.841Z,336.00
2022-10-29T06:28:25.320Z,345.00
2022-10-29T06:29:24.910Z,365.00
2022-10-29T06:30:24.796Z,344.00
2022-10-29T06:31:25.838Z,350.00
2022-10-29T06:32:24.839Z,357.00
2022-10-29T06:33:24.761Z,364.00
2022-10-29T06:34:24.743Z,359.00
2022-10-29T06:35:24.772Z,363.00
2022-10-29T06:36:24.741Z,378.00
2022-10-29T06:37:24.699Z,369.00
2022-10-29T06:38:24.751Z,417.00
2022-10-29T06:39:24.732Z,349.00
2022-10-29T06:40:26.866Z,246.00
2022-10-29T06:41:24.682Z,382.00
2022-10-29T06:42:24.651Z,399.00
2022-10-29T06:43:24.643Z,340.00
2022-10-29T06:44:24.638Z,389.00
2022-10-29T06:45:24.714Z,389.00
2022-10-29T06:46:24.596Z,407.00
2022-10-29T06:47:24.825Z,370.00
2022-10-29T06:48:24.815Z,386.00
2022-10-29T06:49:24.974Z,393.00
2022-10-29T06:50:24.768Z,356.00
2022-10-29T06:51:24.668Z,390.00
2022-10-29T06:52:24.553Z,366.00
2022-10-29T06:53:24.831Z,361.00
2022-10-29T06:54:24.642Z,357.00
2022-10-29T06:55:24.470Z,354.00
2022-10-29T06:56:24.472Z,346.00
2022-10-29T06:57:24.471Z,342.00
2022-10-29T06:58:24.427Z,341.00
2022-10-29T06:59:24.456Z,336.00
2022-10-29T07:00:24.415Z,329.00
2022-10-29T07:01:26.524Z,326.00
2022-10-29T07:02:24.411Z,318.00
2022-10-29T07:03:24.360Z,312.00
2022-10-29T07:04:24.386Z,309.00
2022-10-29T07:05:24.358Z,309.00
2022-10-29T07:06:24.353Z,302.00
2022-10-29T07:08:24.324Z,294.00
2022-10-29T07:09:24.279Z,292.00
2022-10-29T07:10:24.288Z,292.00
2022-10-29T07:11:24.254Z,290.00
2022-10-29T07:12:24.246Z,293.00
2022-10-29T07:13:24.293Z,303.00
2022-10-29T07:14:24.220Z,298.00
2022-10-29T07:15:27.414Z,297.00
2022-10-29T07:16:24.204Z,312.00
2022-10-29T07:17:24.195Z,315.00
2022-10-29T07:18:24.171Z,309.00
2022-10-29T07:19:24.169Z,314.00
2022-10-29T07:20:24.165Z,330.00
2022-10-29T07:21:24.142Z,343.00
2022-10-29T07:22:24.154Z,336.00
2022-10-29T07:23:24.136Z,341.00
2022-10-29T07:24:24.110Z,340.00
2022-10-29T07:25:24.125Z,337.00
2022-10-29T07:26:24.089Z,337.00
2022-10-29T07:27:24.074Z,331.00
2022-10-29T07:28:24.092Z,333.00
2022-10-29T07:29:24.022Z,343.00
2022-10-29T07:30:24.073Z,342.00
2022-10-29T07:31:24.003Z,345.00
2022-10-29T07:32:24.001Z,348.00
2022-10-29T07:33:23.982Z,346.00
2022-10-29T07:34:23.971Z,337.00
2022-10-29T07:35:23.944Z,343.00
2022-10-29T07:36:23.933Z,346.00
2022-10-29T07:37:23.917Z,355.00
2022-10-29T07:38:23.903Z,367.00
2022-10-29T07:39:23.964Z,350.00
2022-10-29T07:40:23.961Z,359.00
2022-10-29T07:41:23.895Z,351.00
2022-10-29T07:42:23.850Z,355.00
2022-10-29T07:43:23.849Z,347.00
2022-10-29T07:44:23.852Z,355.00
2022-10-29T07:45:23.836Z,360.00
2022-10-29T07:46:23.812Z,358.00
2022-10-29T07:47:23.781Z,361.00
2022-10-29T07:48:23.819Z,358.00
2022-10-29T07:49:23.768Z,357.00
2022-10-29T07:50:23.809Z,358.00
2022-10-29T07:51:23.740Z,361.00
2022-10-29T07:52:23.730Z,361.00
2022-10-29T07:53:23.715Z,361.00
2022-10-29T07:54:23.703Z,362.00
2022-10-29T07:55:23.724Z,362.00
2022-10-29T07:56:23.673Z,363.00
2022-10-29T07:57:23.684Z,364.00
2022-10-29T07:58:23.659Z,364.00
2022-10-29T07:59:23.679Z,362.00
2022-10-29T08:00:23.675Z,364.00
2022-10-29T08:01:23.772Z,366.00
2022-10-29T08:02:23.612Z,366.00
2022-10-29T08:03:23.579Z,367.00
2022-10-29T08:04:23.583Z,365.00
2022-10-29T08:05:23.564Z,364.00
2022-10-29T08:06:23.540Z,364.00
2022-10-29T08:07:23.521Z,368.00
2022-10-29T08:08:23.530Z,370.00
2022-10-29T08:09:23.524Z,369.00
2022-10-29T08:10:23.626Z,369.00
2022-10-29T08:11:23.469Z,368.00
2022-10-29T08:12:23.471Z,370.00
2022-10-29T08:13:23.450Z,372.00
2022-10-29T08:14:23.445Z,371.00
2022-10-29T08:15:23.404Z,373.00
2022-10-29T08:16:23.404Z,373.00
2022-10-29T08:17:23.389Z,373.00
2022-10-29T08:18:23.402Z,374.00
2022-10-29T08:19:23.369Z,374.00
2022-10-29T08:20:23.455Z,374.00
2022-10-29T08:21:23.359Z,375.00
2022-10-29T08:22:23.320Z,376.00
2022-10-29T08:23:23.329Z,377.00
2022-10-29T08:24:23.365Z,377.00
2022-10-29T08:25:23.292Z,378.00
2022-10-29T08:26:23.272Z,378.00
2022-10-29T08:27:23.561Z,377.00
2022-10-29T08:28:25.745Z,378.00
2022-10-29T08:29:23.233Z,378.00
2022-10-29T08:30:23.267Z,379.00
2022-10-29T08:31:23.233Z,378.00
2022-10-29T08:32:23.215Z,377.00
2022-10-29T08:33:24.653Z,377.00
2022-10-29T08:34:23.318Z,378.00
2022-10-29T08:35:23.268Z,378.00
2022-10-29T08:36:23.285Z,379.00
2022-10-29T08:37:23.201Z,379.00
2022-10-29T08:38:23.184Z,381.00
2022-10-29T08:39:23.116Z,381.00
2022-10-29T08:40:23.205Z,382.00
2022-10-29T08:41:23.153Z,383.00
2022-10-29T08:42:23.160Z,381.00
2022-10-29T08:43:23.127Z,382.00
2022-10-29T08:44:23.187Z,379.00
2022-10-29T08:45:23.115Z,378.00
2022-10-29T08:46:23.105Z,381.00
2022-10-29T08:47:23.053Z,379.00
2022-10-29T08:48:23.051Z,379.00
2022-10-29T08:49:23.207Z,377.00
2022-10-29T08:50:22.978Z,376.00
2022-10-29T08:51:22.956Z,374.00
2022-10-29T08:52:22.950Z,374.00
2022-10-29T08:53:24.111Z,376.00
2022-10-29T08:54:31.065Z,376.00
2022-10-29T08:55:22.885Z,376.00
2022-10-29T08:56:22.872Z,379.00
2022-10-29T08:57:22.886Z,379.00
2022-10-29T08:58:22.854Z,381.00
2022-10-29T08:59:22.846Z,379.00
2022-10-29T09:00:22.835Z,379.00
2022-10-29T09:01:22.892Z,378.00
2022-10-29T09:02:22.827Z,378.00
2022-10-29T09:03:22.800Z,377.00
2022-10-29T09:04:22.780Z,375.00
2022-10-29T09:05:22.759Z,376.00
2022-10-29T09:06:22.743Z,376.00
2022-10-29T09:07:22.728Z,373.00
2022-10-29T09:08:22.750Z,372.00
2022-10-29T09:09:22.730Z,373.00
2022-10-29T09:10:22.720Z,373.00
2022-10-29T09:11:22.669Z,371.00
2022-10-29T09:12:22.676Z,372.00
2022-10-29T09:13:22.647Z,374.00
2022-10-29T09:14:22.651Z,372.00
2022-10-29T09:15:22.631Z,373.00
2022-10-29T09:16:22.631Z,375.00
2022-10-29T09:17:22.628Z,374.00
2022-10-29T09:18:22.598Z,374.00
2022-10-29T09:19:22.588Z,372.00
2022-10-29T09:20:22.605Z,371.00
2022-10-29T09:21:22.596Z,374.00
2022-10-29T09:22:22.541Z,374.00
2022-10-29T09:23:22.595Z,374.00
2022-10-29T09:24:22.593Z,373.00
2022-10-29T09:25:22.614Z,375.00
2022-10-29T09:26:22.590Z,376.00
2022-10-29T09:27:22.684Z,377.00
2022-10-29T09:28:22.521Z,376.00
2022-10-29T09:29:22.822Z,375.00
2022-10-29T09:30:22.483Z,375.00
2022-10-29T09:31:22.542Z,373.00
2022-10-29T09:32:22.515Z,373.00
2022-10-29T09:33:22.629Z,375.00
2022-10-29T09:34:22.432Z,378.00
2022-10-29T09:35:22.541Z,379.00
2022-10-29T09:36:22.489Z,380.00
2022-10-29T09:37:22.590Z,382.00
2022-10-29T09:38:22.830Z,384.00
2022-10-29T09:39:24.541Z,382.00
2022-10-29T09:40:22.448Z,383.00
2022-10-29T09:41:22.619Z,382.00
2022-10-29T09:42:22.578Z,381.00
2022-10-29T09:43:22.434Z,382.00
2022-10-29T09:44:22.565Z,385.00
2022-10-29T09:45:22.416Z,385.00
2022-10-29T09:46:22.747Z,386.00
2022-10-29T09:47:22.543Z,384.00
2022-10-29T09:48:22.379Z,383.00
2022-10-29T09:49:22.304Z,386.00
2022-10-29T09:50:22.457Z,387.00
2022-10-29T09:51:22.381Z,387.00
2022-10-29T09:52:22.483Z,386.00
2022-10-29T09:53:22.395Z,385.00
2022-10-29T09:54:22.708Z,388.00
2022-10-29T09:55:22.177Z,385.00
2022-10-29T09:56:22.358Z,386.00
2022-10-29T09:57:22.579Z,386.00
2022-10-29T09:58:22.435Z,385.00
2022-10-29T09:59:22.139Z,382.00
2022-10-29T10:00:22.280Z,381.00
2022-10-29T10:01:22.186Z,380.00
2022-10-29T10:02:22.115Z,380.00
2022-10-29T10:03:22.141Z,378.00
2022-10-29T10:04:22.216Z,377.00
2022-10-29T10:05:22.317Z,375.00
2022-10-29T10:06:23.199Z,375.00
2022-10-29T10:07:22.114Z,374.00
2022-10-29T10:08:21.920Z,376.00
2022-10-29T10:09:21.918Z,376.00
2022-10-29T10:10:21.905Z,374.00
2022-10-29T10:11:21.944Z,375.00
2022-10-29T10:12:21.952Z,375.00
2022-10-29T10:13:24.622Z,376.00
2022-10-29T10:14:21.955Z,377.00
2022-10-29T10:15:21.871Z,375.00
2022-10-29T10:16:22.002Z,372.00
2022-10-29T10:17:21.927Z,372.00
2022-10-29T10:18:21.838Z,371.00
2022-10-29T10:19:21.970Z,368.00
2022-10-29T10:20:21.827Z,368.00
2022-10-29T10:21:21.784Z,370.00
2022-10-29T10:22:21.803Z,367.00
2022-10-29T10:23:21.743Z,366.00
2022-10-29T10:24:21.783Z,367.00
2022-10-29T10:25:22.292Z,366.00
2022-10-29T10:26:21.728Z,365.00
2022-10-29T10:27:21.852Z,365.00
2022-10-29T10:28:21.894Z,365.00
2022-10-29T10:29:21.703Z,366.00
2022-10-29T10:30:21.672Z,364.00
2022-10-29T10:31:21.712Z,364.00
2022-10-29T10:32:21.949Z,364.00
2022-10-29T10:34:31.196Z,365.00
2022-10-29T10:35:21.664Z,362.00
2022-10-29T10:36:21.572Z,362.00
2022-10-29T10:37:21.608Z,365.00
2022-10-29T10:38:21.657Z,366.00
2022-10-29T10:39:21.609Z,366.00
2022-10-29T10:40:21.512Z,366.00
2022-10-29T10:41:21.556Z,368.00
2022-10-29T10:42:21.537Z,368.00
2022-10-29T10:43:21.463Z,368.00
2022-10-29T10:44:21.471Z,368.00
2022-10-29T10:45:22.232Z,370.00
2022-10-29T10:46:21.507Z,369.00
2022-10-29T10:47:21.477Z,369.00
2022-10-29T10:48:21.499Z,370.00
2022-10-29T10:49:21.485Z,369.00
2022-10-29T10:50:21.400Z,373.00
2022-10-29T10:51:21.387Z,375.00
2022-10-29T10:52:21.342Z,375.00
2022-10-29T10:53:21.370Z,376.00
2022-10-29T10:54:21.351Z,376.00
2022-10-29T10:55:21.322Z,376.00
2022-10-29T10:56:21.320Z,373.00
2022-10-29T10:57:21.284Z,369.00
2022-10-29T10:58:21.259Z,368.00
2022-10-29T10:59:21.269Z,369.00
2022-10-29T11:00:21.322Z,368.00
2022-10-29T11:01:21.329Z,366.00
2022-10-29T11:02:21.301Z,365.00
2022-10-29T11:03:21.290Z,363.00
2022-10-29T11:04:21.200Z,361.00
2022-10-29T11:05:21.179Z,359.00
2022-10-29T11:06:23.161Z,359.00
2022-10-29T11:07:21.163Z,361.00
2022-10-29T11:08:21.147Z,362.00
2022-10-29T11:09:21.150Z,361.00
2022-10-29T11:10:21.119Z,362.00
2022-10-29T11:11:21.124Z,362.00
2022-10-29T11:12:21.127Z,361.00
2022-10-29T11:13:21.133Z,360.00
2022-10-29T11:14:21.192Z,359.00
2022-10-29T11:15:21.229Z,358.00
2022-10-29T11:16:21.168Z,359.00
2022-10-29T11:17:21.119Z,358.00
2022-10-29T11:18:21.152Z,357.00
2022-10-29T11:19:21.055Z,357.00
2022-10-29T11:20:21.883Z,360.00
2022-10-29T11:21:21.120Z,360.00
2022-10-29T11:22:20.950Z,358.00
2022-10-29T11:23:21.080Z,361.00
2022-10-29T11:24:20.968Z,362.00
2022-10-29T11:25:20.928Z,363.00
2022-10-29T11:26:20.929Z,359.00
2022-10-29T11:27:21.113Z,360.00
2022-10-29T11:28:20.878Z,361.00
2022-10-29T11:29:20.953Z,363.00
2022-10-29T11:30:20.845Z,365.00
2022-10-29T11:31:20.852Z,365.00
2022-10-29T11:32:20.822Z,365.00
2022-10-29T11:33:20.856Z,366.00
2022-10-29T11:34:20.795Z,365.00
2022-10-29T11:35:20.872Z,365.00
2022-10-29T11:36:20.794Z,364.00
2022-10-29T11:37:20.779Z,362.00
2022-10-29T11:38:20.781Z,359.00
2022-10-29T11:39:20.808Z,358.00
2022-10-29T11:40:20.770Z,358.00
2022-10-29T11:41:20.740Z,358.00
2022-10-29T11:42:20.721Z,359.00
2022-10-29T11:43:20.727Z,357.00
2022-10-29T11:44:20.726Z,357.00
2022-10-29T11:45:20.716Z,356.00
2022-10-29T11:46:20.712Z,356.00
2022-10-29T11:47:20.769Z,358.00
2022-10-29T11:48:21.851Z,357.00
2022-10-29T11:49:20.641Z,359.00
2022-10-29T11:50:20.795Z,357.00
2022-10-29T11:51:20.599Z,356.00
2022-10-29T11:52:20.588Z,356.00
2022-10-29T11:53:20.557Z,358.00
2022-10-29T11:54:20.559Z,353.00
2022-10-29T11:55:20.552Z,353.00
2022-10-29T11:56:20.688Z,353.00
2022-10-29T11:57:20.542Z,355.00
2022-10-29T11:58:23.000Z,357.00
2022-10-29T11:59:20.524Z,360.00
2022-10-29T12:00:20.512Z,362.00
2022-10-29T12:01:20.782Z,362.00
2022-10-29T12:02:20.457Z,360.00
2022-10-29T12:03:20.495Z,363.00
2022-10-29T12:04:23.969Z,362.00
2022-10-29T12:05:20.427Z,364.00
2022-10-29T12:06:20.426Z,365.00
2022-10-29T12:07:20.383Z,367.00
2022-10-29T12:08:20.377Z,364.00
2022-10-29T12:09:20.346Z,367.00
2022-10-29T12:10:20.507Z,366.00
2022-10-29T12:11:20.339Z,365.00
2022-10-29T12:12:20.337Z,363.00
2022-10-29T12:13:20.345Z,362.00
2022-10-29T12:14:20.282Z,358.00
2022-10-29T12:15:20.702Z,357.00
2022-10-29T12:16:20.248Z,356.00
2022-10-29T12:17:20.294Z,354.00
2022-10-29T12:18:20.338Z,353.00
2022-10-29T12:19:20.258Z,353.00
2022-10-29T12:20:23.456Z,352.00
2022-10-29T12:21:20.236Z,352.00
2022-10-29T12:22:20.208Z,352.00
2022-10-29T12:23:20.462Z,351.00
2022-10-29T12:24:20.161Z,350.00
2022-10-29T12:25:20.147Z,349.00
2022-10-29T12:26:20.122Z,353.00
2022-10-29T12:27:20.137Z,352.00
2022-10-29T12:28:20.120Z,348.00
2022-10-29T12:29:20.090Z,344.00
2022-10-29T12:30:20.085Z,342.00
2022-10-29T12:31:20.059Z,342.00
2022-10-29T12:32:20.150Z,342.00
2022-10-29T12:33:20.045Z,342.00
2022-10-29T12:34:20.031Z,340.00
2022-10-29T12:35:20.022Z,342.00
2022-10-29T12:36:19.988Z,342.00
2022-10-29T12:37:20.108Z,343.00